sensor_id;sensor_type;location;lat;lon;timestamp;temperature;humidity
40059;SHT31;25763;49.972;8.568;2022-11-20T00:00:42;2.42;89.57
40059;SHT31;25763;49.972;8.568;2022-11-20T00:03:07;2.56;89.64
40059;SHT31;25763;49.972;8.568;2022-11-20T00:05:33;2.67;89.60
40059;SHT31;25763;49.972;8.568;2022-11-20T00:07:58;2.65;89.41
40059;SHT31;25763;49.972;8.568;2022-11-20T00:10:24;2.84;89.38
40059;SHT31;25763;49.972;8.568;2022-11-20T00:12:49;2.96;89.32
40059;SHT31;25763;49.972;8.568;2022-11-20T00:15:14;2.74;89.07
40059;SHT31;25763;49.972;8.568;2022-11-20T00:17:40;2.80;89.10
40059;SHT31;25763;49.972;8.568;2022-11-20T00:20:05;2.96;89.09
40059;SHT31;25763;49.972;8.568;2022-11-20T00:22:31;3.06;89.01
40059;SHT31;25763;49.972;8.568;2022-11-20T00:24:56;3.12;88.89
40059;SHT31;25763;49.972;8.568;2022-11-20T00:27:23;2.93;88.60
40059;SHT31;25763;49.972;8.568;2022-11-20T00:29:48;2.81;88.54
40059;SHT31;25763;49.972;8.568;2022-11-20T00:32:13;2.87;88.55
40059;SHT31;25763;49.972;8.568;2022-11-20T00:34:39;2.71;88.61
40059;SHT31;25763;49.972;8.568;2022-11-20T00:37:04;2.58;88.69
40059;SHT31;25763;49.972;8.568;2022-11-20T00:39:29;2.39;88.87
40059;SHT31;25763;49.972;8.568;2022-11-20T00:41:55;2.22;89.17
40059;SHT31;25763;49.972;8.568;2022-11-20T00:44:20;2.25;89.42
40059;SHT31;25763;49.972;8.568;2022-11-20T00:46:45;2.22;89.54
40059;SHT31;25763;49.972;8.568;2022-11-20T00:49:11;2.21;89.63
40059;SHT31;25763;49.972;8.568;2022-11-20T00:51:36;2.37;89.79
40059;SHT31;25763;49.972;8.568;2022-11-20T00:54:01;2.40;89.61
40059;SHT31;25763;49.972;8.568;2022-11-20T00:56:27;2.53;89.61
40059;SHT31;25763;49.972;8.568;2022-11-20T00:58:53;2.63;89.59
40059;SHT31;25763;49.972;8.568;2022-11-20T01:01:20;2.72;89.60
40059;SHT31;25763;49.972;8.568;2022-11-20T01:03:48;2.57;89.50
40059;SHT31;25763;49.972;8.568;2022-11-20T01:06:25;2.58;89.47
40059;SHT31;25763;49.972;8.568;2022-11-20T01:08:52;2.65;89.42
40059;SHT31;25763;49.972;8.568;2022-11-20T01:11:21;2.72;89.30
40059;SHT31;25763;49.972;8.568;2022-11-20T01:13:49;2.78;89.36
40059;SHT31;25763;49.972;8.568;2022-11-20T01:16:18;2.91;89.30
40059;SHT31;25763;49.972;8.568;2022-11-20T01:18:46;2.98;89.29
40059;SHT31;25763;49.972;8.568;2022-11-20T01:21:16;3.03;89.31
40059;SHT31;25763;49.972;8.568;2022-11-20T01:23:43;3.07;89.26
40059;SHT31;25763;49.972;8.568;2022-11-20T01:26:14;2.96;89.03
40059;SHT31;25763;49.972;8.568;2022-11-20T01:28:40;3.09;89.03
40059;SHT31;25763;49.972;8.568;2022-11-20T01:31:16;3.12;88.96
40059;SHT31;25763;49.972;8.568;2022-11-20T01:33:43;2.99;88.87
40059;SHT31;25763;49.972;8.568;2022-11-20T01:36:10;2.89;88.84
40059;SHT31;25763;49.972;8.568;2022-11-20T01:38:35;2.57;89.08
40059;SHT31;25763;49.972;8.568;2022-11-20T01:41:01;2.64;89.15
40059;SHT31;25763;49.972;8.568;2022-11-20T01:43:27;2.81;89.28
40059;SHT31;25763;49.972;8.568;2022-11-20T01:48:28;3.07;89.40
40059;SHT31;25763;49.972;8.568;2022-11-20T01:50:55;3.19;89.39
40059;SHT31;25763;49.972;8.568;2022-11-20T01:53:25;3.23;89.40
40059;SHT31;25763;49.972;8.568;2022-11-20T01:55:53;3.28;89.29
40059;SHT31;25763;49.972;8.568;2022-11-20T01:58:22;2.88;89.01
40059;SHT31;25763;49.972;8.568;2022-11-20T02:00:49;3.07;89.20
40059;SHT31;25763;49.972;8.568;2022-11-20T02:03:16;3.00;89.06
40059;SHT31;25763;49.972;8.568;2022-11-20T02:06:03;2.84;89.01
40059;SHT31;25763;49.972;8.568;2022-11-20T02:08:30;2.61;88.99
40059;SHT31;25763;49.972;8.568;2022-11-20T02:10:56;2.81;89.08
40059;SHT31;25763;49.972;8.568;2022-11-20T02:13:21;2.95;89.10
40059;SHT31;25763;49.972;8.568;2022-11-20T02:16:12;2.85;89.00
40059;SHT31;25763;49.972;8.568;2022-11-20T02:18:38;2.89;89.05
40059;SHT31;25763;49.972;8.568;2022-11-20T02:21:15;3.07;89.17
40059;SHT31;25763;49.972;8.568;2022-11-20T02:26:28;2.77;89.15
40059;SHT31;25763;49.972;8.568;2022-11-20T02:28:55;2.91;89.30
40059;SHT31;25763;49.972;8.568;2022-11-20T02:31:21;2.70;89.18
40059;SHT31;25763;49.972;8.568;2022-11-20T02:33:46;2.64;89.37
40059;SHT31;25763;49.972;8.568;2022-11-20T02:36:15;2.88;89.41
40059;SHT31;25763;49.972;8.568;2022-11-20T02:38:41;2.89;89.36
40059;SHT31;25763;49.972;8.568;2022-11-20T02:41:08;3.02;89.30
40059;SHT31;25763;49.972;8.568;2022-11-20T02:43:33;3.10;89.18
40059;SHT31;25763;49.972;8.568;2022-11-20T02:45:58;3.17;89.13
40059;SHT31;25763;49.972;8.568;2022-11-20T02:48:24;3.23;89.24
40059;SHT31;25763;49.972;8.568;2022-11-20T02:50:49;3.05;89.02
40059;SHT31;25763;49.972;8.568;2022-11-20T02:53:14;3.19;89.07
40059;SHT31;25763;49.972;8.568;2022-11-20T02:55:40;3.26;89.19
40059;SHT31;25763;49.972;8.568;2022-11-20T02:58:05;3.33;89.25
40059;SHT31;25763;49.972;8.568;2022-11-20T03:00:32;3.16;88.96
40059;SHT31;25763;49.972;8.568;2022-11-20T03:02:57;3.02;89.06
40059;SHT31;25763;49.972;8.568;2022-11-20T03:05:23;3.19;89.05
40059;SHT31;25763;49.972;8.568;2022-11-20T03:07:48;3.30;89.14
40059;SHT31;25763;49.972;8.568;2022-11-20T03:10:14;3.30;88.98
40059;SHT31;25763;49.972;8.568;2022-11-20T03:12:39;3.33;88.96
40059;SHT31;25763;49.972;8.568;2022-11-20T03:15:05;3.36;88.99
40059;SHT31;25763;49.972;8.568;2022-11-20T03:17:30;3.39;88.98
40059;SHT31;25763;49.972;8.568;2022-11-20T03:19:56;3.19;88.74
40059;SHT31;25763;49.972;8.568;2022-11-20T03:22:21;3.31;88.84
40059;SHT31;25763;49.972;8.568;2022-11-20T03:24:47;3.33;88.91
40059;SHT31;25763;49.972;8.568;2022-11-20T03:27:12;3.37;88.84
40059;SHT31;25763;49.972;8.568;2022-11-20T03:29:38;3.44;88.92
40059;SHT31;25763;49.972;8.568;2022-11-20T03:32:03;3.44;88.95
40059;SHT31;25763;49.972;8.568;2022-11-20T03:34:28;3.39;88.84
40059;SHT31;25763;49.972;8.568;2022-11-20T03:36:54;3.47;88.81
40059;SHT31;25763;49.972;8.568;2022-11-20T03:39:19;3.46;88.80
40059;SHT31;25763;49.972;8.568;2022-11-20T03:41:45;3.50;88.80
40059;SHT31;25763;49.972;8.568;2022-11-20T03:44:11;3.52;88.75
40059;SHT31;25763;49.972;8.568;2022-11-20T03:46:37;3.50;88.71
40059;SHT31;25763;49.972;8.568;2022-11-20T03:49:03;3.47;88.66
40059;SHT31;25763;49.972;8.568;2022-11-20T03:51:34;3.54;88.73
40059;SHT31;25763;49.972;8.568;2022-11-20T03:54:05;3.05;88.43
40059;SHT31;25763;49.972;8.568;2022-11-20T03:56:34;2.70;88.95
40059;SHT31;25763;49.972;8.568;2022-11-20T03:59:00;2.91;89.22
40059;SHT31;25763;49.972;8.568;2022-11-20T04:01:28;2.95;89.11
40059;SHT31;25763;49.972;8.568;2022-11-20T04:03:55;2.70;89.15
40059;SHT31;25763;49.972;8.568;2022-11-20T04:06:26;2.92;89.28
40059;SHT31;25763;49.972;8.568;2022-11-20T04:08:54;3.10;89.36
40059;SHT31;25763;49.972;8.568;2022-11-20T04:11:29;3.19;89.33
40059;SHT31;25763;49.972;8.568;2022-11-20T04:13:57;3.23;89.15
40059;SHT31;25763;49.972;8.568;2022-11-20T04:16:24;3.26;89.10
40059;SHT31;25763;49.972;8.568;2022-11-20T04:18:54;2.98;88.85
40059;SHT31;25763;49.972;8.568;2022-11-20T04:21:20;3.05;88.74
40059;SHT31;25763;49.972;8.568;2022-11-20T04:23:45;2.88;89.01
40059;SHT31;25763;49.972;8.568;2022-11-20T04:26:11;2.88;89.05
40059;SHT31;25763;49.972;8.568;2022-11-20T04:28:38;2.89;89.02
40059;SHT31;25763;49.972;8.568;2022-11-20T04:31:08;2.71;89.07
40059;SHT31;25763;49.972;8.568;2022-11-20T04:33:35;2.58;89.39
40059;SHT31;25763;49.972;8.568;2022-11-20T04:36:12;2.63;89.57
40059;SHT31;25763;49.972;8.568;2022-11-20T04:38:39;2.53;89.85
40059;SHT31;25763;49.972;8.568;2022-11-20T04:41:06;2.58;89.95
40059;SHT31;25763;49.972;8.568;2022-11-20T04:43:32;2.70;90.01
40059;SHT31;25763;49.972;8.568;2022-11-20T04:45:58;2.53;90.00
40059;SHT31;25763;49.972;8.568;2022-11-20T04:48:25;2.57;90.13
40059;SHT31;25763;49.972;8.568;2022-11-20T04:50:51;2.80;90.14
40059;SHT31;25763;49.972;8.568;2022-11-20T04:53:18;2.82;90.01
40059;SHT31;25763;49.972;8.568;2022-11-20T04:55:43;2.96;89.93
40059;SHT31;25763;49.972;8.568;2022-11-20T04:58:09;3.10;90.01
40059;SHT31;25763;49.972;8.568;2022-11-20T05:00:34;3.19;90.01
40059;SHT31;25763;49.972;8.568;2022-11-20T05:03:00;3.26;89.94
40059;SHT31;25763;49.972;8.568;2022-11-20T05:05:26;3.31;89.90
40059;SHT31;25763;49.972;8.568;2022-11-20T05:07:51;3.34;89.80
40059;SHT31;25763;49.972;8.568;2022-11-20T05:10:16;3.37;89.73
40059;SHT31;25763;49.972;8.568;2022-11-20T05:12:42;3.39;89.63
40059;SHT31;25763;49.972;8.568;2022-11-20T05:15:07;3.43;89.61
40059;SHT31;25763;49.972;8.568;2022-11-20T05:17:33;3.44;89.53
40059;SHT31;25763;49.972;8.568;2022-11-20T05:19:58;3.50;89.40
40059;SHT31;25763;49.972;8.568;2022-11-20T05:22:24;3.50;89.32
40059;SHT31;25763;49.972;8.568;2022-11-20T05:24:49;3.52;89.29
40059;SHT31;25763;49.972;8.568;2022-11-20T05:27:14;3.57;89.24
40059;SHT31;25763;49.972;8.568;2022-11-20T05:29:40;3.55;89.23
40059;SHT31;25763;49.972;8.568;2022-11-20T05:32:05;3.58;89.26
40059;SHT31;25763;49.972;8.568;2022-11-20T05:34:32;3.58;89.22
40059;SHT31;25763;49.972;8.568;2022-11-20T05:36:58;3.55;89.16
40059;SHT31;25763;49.972;8.568;2022-11-20T05:39:23;3.59;89.15
40059;SHT31;25763;49.972;8.568;2022-11-20T05:41:48;3.62;89.12
40059;SHT31;25763;49.972;8.568;2022-11-20T05:44:34;3.58;88.98
40059;SHT31;25763;49.972;8.568;2022-11-20T05:46:59;3.59;89.03
40059;SHT31;25763;49.972;8.568;2022-11-20T05:49:24;3.62;89.00
40059;SHT31;25763;49.972;8.568;2022-11-20T05:51:50;3.64;89.03
40059;SHT31;25763;49.972;8.568;2022-11-20T05:54:15;3.64;88.98
40059;SHT31;25763;49.972;8.568;2022-11-20T05:56:40;3.62;89.00
40059;SHT31;25763;49.972;8.568;2022-11-20T05:59:06;3.65;89.02
40059;SHT31;25763;49.972;8.568;2022-11-20T06:01:31;3.58;88.93
40059;SHT31;25763;49.972;8.568;2022-11-20T06:03:56;3.59;88.81
40059;SHT31;25763;49.972;8.568;2022-11-20T06:06:22;3.59;88.84
40059;SHT31;25763;49.972;8.568;2022-11-20T06:08:48;3.58;88.78
40059;SHT31;25763;49.972;8.568;2022-11-20T06:11:14;3.59;88.81
40059;SHT31;25763;49.972;8.568;2022-11-20T06:13:41;3.65;88.84
40059;SHT31;25763;49.972;8.568;2022-11-20T06:16:06;3.68;88.88
40059;SHT31;25763;49.972;8.568;2022-11-20T06:18:32;3.71;88.88
40059;SHT31;25763;49.972;8.568;2022-11-20T06:21:02;3.71;88.93
40059;SHT31;25763;49.972;8.568;2022-11-20T06:23:29;3.69;88.86
40059;SHT31;25763;49.972;8.568;2022-11-20T06:25:55;3.68;88.74
40059;SHT31;25763;49.972;8.568;2022-11-20T06:28:20;3.72;88.79
40059;SHT31;25763;49.972;8.568;2022-11-20T06:30:47;3.47;88.59
40059;SHT31;25763;49.972;8.568;2022-11-20T06:33:12;3.54;88.57
40059;SHT31;25763;49.972;8.568;2022-11-20T06:35:38;3.47;88.54
40059;SHT31;25763;49.972;8.568;2022-11-20T06:38:03;3.55;88.63
40059;SHT31;25763;49.972;8.568;2022-11-20T06:40:29;3.59;88.66
40059;SHT31;25763;49.972;8.568;2022-11-20T06:42:54;3.50;88.58
40059;SHT31;25763;49.972;8.568;2022-11-20T06:45:21;3.57;88.68
40059;SHT31;25763;49.972;8.568;2022-11-20T06:47:46;3.61;88.66
40059;SHT31;25763;49.972;8.568;2022-11-20T06:50:12;3.65;88.72
40059;SHT31;25763;49.972;8.568;2022-11-20T06:52:37;3.66;88.81
40059;SHT31;25763;49.972;8.568;2022-11-20T06:55:03;3.26;88.67
40059;SHT31;25763;49.972;8.568;2022-11-20T06:57:28;3.05;88.89
40059;SHT31;25763;49.972;8.568;2022-11-20T06:59:54;3.07;89.12
40059;SHT31;25763;49.972;8.568;2022-11-20T07:02:19;3.30;89.23
40059;SHT31;25763;49.972;8.568;2022-11-20T07:04:45;3.40;89.19
40059;SHT31;25763;49.972;8.568;2022-11-20T07:07:10;3.52;89.15
40059;SHT31;25763;49.972;8.568;2022-11-20T07:09:35;3.52;89.11
40059;SHT31;25763;49.972;8.568;2022-11-20T07:12:01;3.50;88.98
40059;SHT31;25763;49.972;8.568;2022-11-20T07:14:26;3.58;89.04
40059;SHT31;25763;49.972;8.568;2022-11-20T07:16:52;3.62;89.05
40059;SHT31;25763;49.972;8.568;2022-11-20T07:19:17;3.36;88.75
40059;SHT31;25763;49.972;8.568;2022-11-20T07:21:43;3.31;88.66
40059;SHT31;25763;49.972;8.568;2022-11-20T07:24:08;3.22;88.58
40059;SHT31;25763;49.972;8.568;2022-11-20T07:26:33;3.47;88.80
40059;SHT31;25763;49.972;8.568;2022-11-20T07:28:59;3.27;88.65
40059;SHT31;25763;49.972;8.568;2022-11-20T07:31:24;3.34;88.92
40059;SHT31;25763;49.972;8.568;2022-11-20T07:33:50;3.27;88.88
40059;SHT31;25763;49.972;8.568;2022-11-20T07:36:15;3.27;88.87
40059;SHT31;25763;49.972;8.568;2022-11-20T07:38:40;3.39;88.86
40059;SHT31;25763;49.972;8.568;2022-11-20T07:41:06;3.22;88.97
40059;SHT31;25763;49.972;8.568;2022-11-20T07:43:31;3.34;88.91
40059;SHT31;25763;49.972;8.568;2022-11-20T07:45:58;3.51;88.83
40059;SHT31;25763;49.972;8.568;2022-11-20T07:48:24;3.54;88.84
40059;SHT31;25763;49.972;8.568;2022-11-20T07:50:53;3.62;88.80
40059;SHT31;25763;49.972;8.568;2022-11-20T07:53:18;3.62;88.78
40059;SHT31;25763;49.972;8.568;2022-11-20T07:55:46;3.61;88.61
40059;SHT31;25763;49.972;8.568;2022-11-20T07:58:11;3.72;88.57
40059;SHT31;25763;49.972;8.568;2022-11-20T08:00:37;3.72;88.69
40059;SHT31;25763;49.972;8.568;2022-11-20T08:03:03;3.78;88.61
40059;SHT31;25763;49.972;8.568;2022-11-20T08:05:29;3.76;88.58
40059;SHT31;25763;49.972;8.568;2022-11-20T08:07:55;3.64;88.51
40059;SHT31;25763;49.972;8.568;2022-11-20T08:10:20;3.52;88.80
40059;SHT31;25763;49.972;8.568;2022-11-20T08:12:47;3.61;88.80
40059;SHT31;25763;49.972;8.568;2022-11-20T08:15:31;3.82;88.73
40059;SHT31;25763;49.972;8.568;2022-11-20T08:20:27;3.99;88.58
40059;SHT31;25763;49.972;8.568;2022-11-20T08:22:52;4.09;88.52
40059;SHT31;25763;49.972;8.568;2022-11-20T08:25:22;4.10;88.37
40059;SHT31;25763;49.972;8.568;2022-11-20T08:27:47;4.10;88.22
40059;SHT31;25763;49.972;8.568;2022-11-20T08:30:13;4.17;88.09
40059;SHT31;25763;49.972;8.568;2022-11-20T08:32:38;4.25;88.05
40059;SHT31;25763;49.972;8.568;2022-11-20T08:35:04;4.39;88.14
40059;SHT31;25763;49.972;8.568;2022-11-20T08:37:30;4.49;88.15
40059;SHT31;25763;49.972;8.568;2022-11-20T08:39:55;4.65;87.96
40059;SHT31;25763;49.972;8.568;2022-11-20T08:42:22;4.72;87.79
40059;SHT31;25763;49.972;8.568;2022-11-20T08:44:47;4.73;87.42
40059;SHT31;25763;49.972;8.568;2022-11-20T08:47:16;4.72;87.08
40059;SHT31;25763;49.972;8.568;2022-11-20T08:49:41;4.81;87.01
40059;SHT31;25763;49.972;8.568;2022-11-20T08:52:07;4.80;86.65
40059;SHT31;25763;49.972;8.568;2022-11-20T08:54:32;4.79;86.41
40059;SHT31;25763;49.972;8.568;2022-11-20T08:56:57;4.93;86.53
40059;SHT31;25763;49.972;8.568;2022-11-20T08:59:23;4.95;86.43
40059;SHT31;25763;49.972;8.568;2022-11-20T09:01:48;5.08;86.28
40059;SHT31;25763;49.972;8.568;2022-11-20T09:04:13;5.08;86.10
40059;SHT31;25763;49.972;8.568;2022-11-20T09:06:39;5.22;86.06
40059;SHT31;25763;49.972;8.568;2022-11-20T09:09:05;5.33;85.82
40059;SHT31;25763;49.972;8.568;2022-11-20T09:11:31;5.43;85.35
40059;SHT31;25763;49.972;8.568;2022-11-20T09:13:57;5.38;85.06
40059;SHT31;25763;49.972;8.568;2022-11-20T09:16:22;5.42;85.07
40059;SHT31;25763;49.972;8.568;2022-11-20T09:18:49;5.44;85.18
40059;SHT31;25763;49.972;8.568;2022-11-20T09:21:15;5.40;84.97
40059;SHT31;25763;49.972;8.568;2022-11-20T09:23:40;5.26;85.04
40059;SHT31;25763;49.972;8.568;2022-11-20T09:26:09;5.09;85.23
40059;SHT31;25763;49.972;8.568;2022-11-20T09:28:34;5.09;85.46
40059;SHT31;25763;49.972;8.568;2022-11-20T09:31:00;5.05;85.60
40059;SHT31;25763;49.972;8.568;2022-11-20T09:33:25;5.07;85.59
40059;SHT31;25763;49.972;8.568;2022-11-20T09:35:51;4.97;85.92
40059;SHT31;25763;49.972;8.568;2022-11-20T09:38:16;5.15;86.04
40059;SHT31;25763;49.972;8.568;2022-11-20T09:41:04;5.08;86.12
40059;SHT31;25763;49.972;8.568;2022-11-20T09:49:34;5.39;85.82
40059;SHT31;25763;49.972;8.568;2022-11-20T09:52:21;5.30;85.79
40059;SHT31;25763;49.972;8.568;2022-11-20T09:54:48;5.30;85.62
40059;SHT31;25763;49.972;8.568;2022-11-20T09:57:19;5.33;85.67
40059;SHT31;25763;49.972;8.568;2022-11-20T09:59:48;5.36;85.60
40059;SHT31;25763;49.972;8.568;2022-11-20T10:04:45;5.30;85.27
40059;SHT31;25763;49.972;8.568;2022-11-20T10:07:21;5.19;85.20
40059;SHT31;25763;49.972;8.568;2022-11-20T10:09:53;5.23;85.36
40059;SHT31;25763;49.972;8.568;2022-11-20T10:12:31;5.15;85.42
40059;SHT31;25763;49.972;8.568;2022-11-20T10:15:06;5.16;85.48
40059;SHT31;25763;49.972;8.568;2022-11-20T10:17:57;5.08;85.62
40059;SHT31;25763;49.972;8.568;2022-11-20T10:25:39;5.21;85.59
40059;SHT31;25763;49.972;8.568;2022-11-20T10:30:42;5.16;85.62
40059;SHT31;25763;49.972;8.568;2022-11-20T10:33:36;5.21;85.81
40059;SHT31;25763;49.972;8.568;2022-11-20T10:36:23;5.18;85.79
40059;SHT31;25763;49.972;8.568;2022-11-20T10:38:54;5.22;85.81
40059;SHT31;25763;49.972;8.568;2022-11-20T10:41:28;5.25;85.91
40059;SHT31;25763;49.972;8.568;2022-11-20T10:46:23;5.19;86.02
40059;SHT31;25763;49.972;8.568;2022-11-20T10:48:50;5.00;86.06
40059;SHT31;25763;49.972;8.568;2022-11-20T10:51:40;5.03;86.24
40059;SHT31;25763;49.972;8.568;2022-11-20T10:54:22;5.04;86.20
40059;SHT31;25763;49.972;8.568;2022-11-20T10:56:52;5.01;86.31
40059;SHT31;25763;49.972;8.568;2022-11-20T10:59:41;5.07;86.31
40059;SHT31;25763;49.972;8.568;2022-11-20T11:02:19;5.09;86.38
40059;SHT31;25763;49.972;8.568;2022-11-20T11:04:47;5.11;86.58
40059;SHT31;25763;49.972;8.568;2022-11-20T11:07:23;5.03;86.50
40059;SHT31;25763;49.972;8.568;2022-11-20T11:09:52;4.98;86.58
40059;SHT31;25763;49.972;8.568;2022-11-20T11:12:19;4.90;86.86
40059;SHT31;25763;49.972;8.568;2022-11-20T11:14:53;4.93;86.81
40059;SHT31;25763;49.972;8.568;2022-11-20T11:17:31;5.01;86.78
40059;SHT31;25763;49.972;8.568;2022-11-20T11:19:59;5.08;86.91
40059;SHT31;25763;49.972;8.568;2022-11-20T11:22:24;5.22;86.85
40059;SHT31;25763;49.972;8.568;2022-11-20T11:24:53;5.32;86.86
40059;SHT31;25763;49.972;8.568;2022-11-20T11:27:18;5.38;86.62
40059;SHT31;25763;49.972;8.568;2022-11-20T11:29:45;5.26;86.29
40059;SHT31;25763;49.972;8.568;2022-11-20T11:32:20;5.26;86.22
40059;SHT31;25763;49.972;8.568;2022-11-20T11:35:07;5.39;86.34
40059;SHT31;25763;49.972;8.568;2022-11-20T11:37:45;5.22;86.10
40059;SHT31;25763;49.972;8.568;2022-11-20T11:40:12;5.16;86.43
40059;SHT31;25763;49.972;8.568;2022-11-20T11:42:52;5.29;86.46
40059;SHT31;25763;49.972;8.568;2022-11-20T11:45:17;5.23;86.42
40059;SHT31;25763;49.972;8.568;2022-11-20T11:52:41;5.35;86.51
40059;SHT31;25763;49.972;8.568;2022-11-20T11:55:14;5.30;86.37
40059;SHT31;25763;49.972;8.568;2022-11-20T11:57:50;5.42;86.52
40059;SHT31;25763;49.972;8.568;2022-11-20T12:00:19;5.53;86.38
40059;SHT31;25763;49.972;8.568;2022-11-20T12:05:30;5.87;86.21
40059;SHT31;25763;49.972;8.568;2022-11-20T12:08:19;6.09;86.05
40059;SHT31;25763;49.972;8.568;2022-11-20T12:10:53;6.20;85.87
40059;SHT31;25763;49.972;8.568;2022-11-20T12:15:55;6.17;84.88
40059;SHT31;25763;49.972;8.568;2022-11-20T12:18:22;6.19;84.96
40059;SHT31;25763;49.972;8.568;2022-11-20T12:21:18;6.23;84.71
40059;SHT31;25763;49.972;8.568;2022-11-20T12:29:53;6.42;84.95
40059;SHT31;25763;49.972;8.568;2022-11-20T12:35:38;6.48;84.41
40059;SHT31;25763;49.972;8.568;2022-11-20T12:38:27;6.38;84.37
40059;SHT31;25763;49.972;8.568;2022-11-20T12:41:27;6.36;84.52
40059;SHT31;25763;49.972;8.568;2022-11-20T12:47:59;6.22;84.80
40059;SHT31;25763;49.972;8.568;2022-11-20T13:07:00;6.27;86.21
40059;SHT31;25763;49.972;8.568;2022-11-20T13:09:27;6.19;86.04
40059;SHT31;25763;49.972;8.568;2022-11-20T13:12:33;6.22;86.03
40059;SHT31;25763;49.972;8.568;2022-11-20T13:17:43;6.10;85.91
40059;SHT31;25763;49.972;8.568;2022-11-20T13:20:15;6.10;86.24
40059;SHT31;25763;49.972;8.568;2022-11-20T13:22:44;6.22;86.34
40059;SHT31;25763;49.972;8.568;2022-11-20T13:25:25;6.20;86.41
40059;SHT31;25763;49.972;8.568;2022-11-20T13:27:51;6.07;86.56
40059;SHT31;25763;49.972;8.568;2022-11-20T13:30:18;5.89;87.23
40059;SHT31;25763;49.972;8.568;2022-11-20T13:33:21;5.85;87.48
40059;SHT31;25763;49.972;8.568;2022-11-20T13:35:36;5.73;87.52
40059;SHT31;25763;49.972;8.568;2022-11-20T13:38:13;5.87;87.56
40059;SHT31;25763;49.972;8.568;2022-11-20T13:41:00;5.97;87.53
40059;SHT31;25763;49.972;8.568;2022-11-20T13:43:47;6.05;87.44
40059;SHT31;25763;49.972;8.568;2022-11-20T13:46:13;5.85;87.72
40059;SHT31;25763;49.972;8.568;2022-11-20T13:48:42;5.99;87.64
40059;SHT31;25763;49.972;8.568;2022-11-20T13:51:26;6.07;87.43
40059;SHT31;25763;49.972;8.568;2022-11-20T13:53:59;6.19;87.44
40059;SHT31;25763;49.972;8.568;2022-11-20T14:02:10;6.16;87.20
40059;SHT31;25763;49.972;8.568;2022-11-20T14:04:46;6.05;87.28
40059;SHT31;25763;49.972;8.568;2022-11-20T14:07:12;6.05;87.64
40059;SHT31;25763;49.972;8.568;2022-11-20T14:09:37;5.92;87.88
40059;SHT31;25763;49.972;8.568;2022-11-20T14:12:12;5.95;88.17
40059;SHT31;25763;49.972;8.568;2022-11-20T14:14:51;5.92;88.54
40059;SHT31;25763;49.972;8.568;2022-11-20T14:17:20;6.16;88.40
40059;SHT31;25763;49.972;8.568;2022-11-20T14:19:46;6.16;88.07
40059;SHT31;25763;49.972;8.568;2022-11-20T14:22:21;6.15;88.03
40059;SHT31;25763;49.972;8.568;2022-11-20T14:24:48;5.94;88.18
40059;SHT31;25763;49.972;8.568;2022-11-20T14:27:20;5.91;88.49
40059;SHT31;25763;49.972;8.568;2022-11-20T14:29:47;5.99;88.59
40059;SHT31;25763;49.972;8.568;2022-11-20T14:32:22;6.03;88.59
40059;SHT31;25763;49.972;8.568;2022-11-20T14:34:51;6.06;88.67
40059;SHT31;25763;49.972;8.568;2022-11-20T14:37:20;6.02;88.53
40059;SHT31;25763;49.972;8.568;2022-11-20T14:39:54;5.95;88.84
40059;SHT31;25763;49.972;8.568;2022-11-20T14:42:23;6.01;88.75
40059;SHT31;25763;49.972;8.568;2022-11-20T14:44:49;6.09;88.57
40059;SHT31;25763;49.972;8.568;2022-11-20T14:47:18;6.13;88.47
40059;SHT31;25763;49.972;8.568;2022-11-20T14:49:45;6.20;88.50
40059;SHT31;25763;49.972;8.568;2022-11-20T14:52:19;6.27;88.31
40059;SHT31;25763;49.972;8.568;2022-11-20T14:54:47;6.17;88.39
40059;SHT31;25763;49.972;8.568;2022-11-20T14:57:30;6.15;88.58
40059;SHT31;25763;49.972;8.568;2022-11-20T15:02:44;5.98;89.09
40059;SHT31;25763;49.972;8.568;2022-11-20T15:05:09;5.92;89.16
40059;SHT31;25763;49.972;8.568;2022-11-20T15:07:39;6.06;89.07
40059;SHT31;25763;49.972;8.568;2022-11-20T15:10:09;6.02;89.08
40059;SHT31;25763;49.972;8.568;2022-11-20T15:12:38;6.10;89.09
40059;SHT31;25763;49.972;8.568;2022-11-20T15:15:05;6.19;88.90
40059;SHT31;25763;49.972;8.568;2022-11-20T15:17:32;6.10;89.04
40059;SHT31;25763;49.972;8.568;2022-11-20T15:20:01;5.99;89.15
40059;SHT31;25763;49.972;8.568;2022-11-20T15:22:27;5.94;89.45
40059;SHT31;25763;49.972;8.568;2022-11-20T15:24:52;5.85;89.69
40059;SHT31;25763;49.972;8.568;2022-11-20T15:27:17;5.78;89.82
40059;SHT31;25763;49.972;8.568;2022-11-20T15:29:43;5.92;89.86
40059;SHT31;25763;49.972;8.568;2022-11-20T15:32:08;5.97;89.72
40059;SHT31;25763;49.972;8.568;2022-11-20T15:34:34;5.89;89.74
40059;SHT31;25763;49.972;8.568;2022-11-20T15:36:59;5.91;89.74
40059;SHT31;25763;49.972;8.568;2022-11-20T15:39:24;5.91;89.83
40059;SHT31;25763;49.972;8.568;2022-11-20T15:41:50;5.78;89.86
40059;SHT31;25763;49.972;8.568;2022-11-20T15:44:15;5.69;90.23
40059;SHT31;25763;49.972;8.568;2022-11-20T15:46:41;5.75;90.42
40059;SHT31;25763;49.972;8.568;2022-11-20T15:49:15;5.91;90.18
40059;SHT31;25763;49.972;8.568;2022-11-20T15:51:47;5.87;90.01
40059;SHT31;25763;49.972;8.568;2022-11-20T15:54:15;5.88;89.86
40059;SHT31;25763;49.972;8.568;2022-11-20T15:56:43;5.94;89.84
40059;SHT31;25763;49.972;8.568;2022-11-20T15:59:08;6.02;89.67
40059;SHT31;25763;49.972;8.568;2022-11-20T16:01:34;5.88;89.70
40059;SHT31;25763;49.972;8.568;2022-11-20T16:04:00;5.97;89.69
40059;SHT31;25763;49.972;8.568;2022-11-20T16:06:25;5.97;89.57
40059;SHT31;25763;49.972;8.568;2022-11-20T16:08:51;5.88;89.57
40059;SHT31;25763;49.972;8.568;2022-11-20T16:11:17;5.92;89.55
40059;SHT31;25763;49.972;8.568;2022-11-20T16:13:43;5.87;89.49
40059;SHT31;25763;49.972;8.568;2022-11-20T16:16:30;5.82;89.56
40059;SHT31;25763;49.972;8.568;2022-11-20T16:18:58;5.81;89.69
40059;SHT31;25763;49.972;8.568;2022-11-20T16:21:23;5.85;89.63
40059;SHT31;25763;49.972;8.568;2022-11-20T16:23:58;5.74;89.89
40059;SHT31;25763;49.972;8.568;2022-11-20T16:26:24;5.84;89.85
40059;SHT31;25763;49.972;8.568;2022-11-20T16:28:50;5.80;89.82
40059;SHT31;25763;49.972;8.568;2022-11-20T16:31:17;5.80;89.98
40059;SHT31;25763;49.972;8.568;2022-11-20T16:33:49;5.88;89.84
40059;SHT31;25763;49.972;8.568;2022-11-20T16:36:15;5.84;89.82
40059;SHT31;25763;49.972;8.568;2022-11-20T16:38:40;5.82;89.92
40059;SHT31;25763;49.972;8.568;2022-11-20T16:41:07;5.92;89.77
40059;SHT31;25763;49.972;8.568;2022-11-20T16:43:52;5.89;89.81
40059;SHT31;25763;49.972;8.568;2022-11-20T16:46:20;5.89;89.69
40059;SHT31;25763;49.972;8.568;2022-11-20T16:48:53;5.97;89.69
40059;SHT31;25763;49.972;8.568;2022-11-20T16:51:19;5.99;89.59
40059;SHT31;25763;49.972;8.568;2022-11-20T16:53:44;6.03;89.53
40059;SHT31;25763;49.972;8.568;2022-11-20T16:56:15;6.03;89.60
40059;SHT31;25763;49.972;8.568;2022-11-20T16:58:42;6.06;89.51
40059;SHT31;25763;49.972;8.568;2022-11-20T17:01:08;6.13;89.46
40059;SHT31;25763;49.972;8.568;2022-11-20T17:03:44;6.10;89.41
40059;SHT31;25763;49.972;8.568;2022-11-20T17:06:11;6.07;89.59
40059;SHT31;25763;49.972;8.568;2022-11-20T17:08:37;6.09;89.46
40059;SHT31;25763;49.972;8.568;2022-11-20T17:11:07;6.10;89.40